Time;durP1;ratioP1;P1;durP2;ratioP2;P2;SDS_P1;SDS_P2;PMS_P1;PMS_P2;Temp;Humidity;BMP_temperature;BMP_pressure;BME280_temperature;BME280_humidity;BME280_pressure;Samples;Min_cycle;Max_cycle;Signal;HPM_P1;HPM_P2
2023/07/10 00:02:12;;;;;;;;;;;;;;;30.24;48.21;98157.06;5077600;28;19925;-75
2023/07/10 00:04:38;;;;;;;;;;;;;;;30.21;48.20;98160.59;5095348;28;19944;-74
2023/07/10 00:07:05;;;;;;;;;;;;;;;30.14;48.11;98150.34;5081821;28;19987;-74
2023/07/10 00:09:31;;;;;;;;;;;;;;;30.18;48.03;98150.34;5085723;28;19952;-74
2023/07/10 00:11:57;;;;;;;;;;;;;;;30.18;48.02;98147.59;5084081;28;20044;-74
2023/07/10 00:14:24;;;;;;;;;;;;;;;30.25;47.64;98153.16;5082258;28;19963;-75
2023/07/10 00:16:52;;;;;;;;;;;;;;;30.11;47.65;98156.63;5080981;28;20011;-74
2023/07/10 00:19:19;;;;;;;;;;;;;;;30.08;47.74;98149.16;5088345;28;19970;-74
2023/07/10 00:21:46;;;;;;;;;;;;;;;30.01;47.85;98151.06;5078744;28;20460;-75
2023/07/10 00:24:13;;;;;;;;;;;;;;;30.07;47.62;98139.28;5084024;28;19930;-74
2023/07/10 00:26:40;;;;;;;;;;;;;;;30.07;47.57;98144.00;5084807;28;19920;-74
2023/07/10 00:29:14;;;;;;;;;;;;;;;30.08;47.25;98140.09;5085236;28;19913;-74
2023/07/10 00:31:41;;;;;;;;;;;;;;;29.96;47.47;98147.50;5079992;28;19925;-74
2023/07/10 00:34:09;;;;;;;;;;;;;;;30.03;47.23;98148.69;5085585;28;19928;-75
2023/07/10 00:36:38;;;;;;;;;;;;;;;29.94;47.32;98149.84;5081858;28;19931;-75
2023/07/10 00:39:13;;;;;;;;;;;;;;;29.93;47.24;98137.25;5080839;28;19928;-75
2023/07/10 00:41:40;;;;;;;;;;;;;;;29.93;47.12;98150.22;5081357;28;20015;-74
2023/07/10 00:44:07;;;;;;;;;;;;;;;29.83;47.21;98148.22;5087897;28;19925;-74
2023/07/10 00:46:35;;;;;;;;;;;;;;;29.81;47.31;98148.56;5080432;28;19951;-74
2023/07/10 00:49:07;;;;;;;;;;;;;;;29.82;47.17;98150.16;5081658;28;19930;-74
2023/07/10 00:51:36;;;;;;;;;;;;;;;29.78;47.32;98152.06;5085193;28;19952;-74
2023/07/10 00:54:05;;;;;;;;;;;;;;;29.73;47.47;98151.66;5081932;28;19948;-74
2023/07/10 00:56:36;;;;;;;;;;;;;;;29.77;47.19;98144.97;5088577;28;19929;-74
2023/07/10 00:59:20;;;;;;;;;;;;;;;29.76;47.48;98150.88;5080706;28;19991;-74
2023/07/10 01:02:01;;;;;;;;;;;;;;;29.74;47.37;98151.25;5086891;28;19970;-74
2023/07/10 01:04:27;;;;;;;;;;;;;;;29.79;47.40;98145.41;5082515;28;19928;-74
2023/07/10 01:06:54;;;;;;;;;;;;;;;29.69;47.28;98143.34;5086414;28;19951;-74
2023/07/10 01:09:21;;;;;;;;;;;;;;;29.66;47.41;98148.84;5085915;28;19987;-74
2023/07/10 01:11:48;;;;;;;;;;;;;;;29.67;47.51;98148.47;5081677;28;19932;-74
2023/07/10 01:14:15;;;;;;;;;;;;;;;29.60;47.45;98147.63;5084831;28;19936;-75
2023/07/10 01:16:41;;;;;;;;;;;;;;;29.62;47.51;98148.03;5083850;28;19976;-75
2023/07/10 01:19:15;;;;;;;;;;;;;;;29.65;47.52;98145.28;5094460;28;20000;-74
2023/07/10 01:21:43;;;;;;;;;;;;;;;29.57;47.55;98143.66;5090964;28;19932;-74
2023/07/10 01:24:09;;;;;;;;;;;;;;;29.60;47.62;98147.63;5093436;28;19924;-74
2023/07/10 01:26:37;;;;;;;;;;;;;;;29.54;47.70;98143.63;5083647;28;19924;-74
2023/07/10 01:29:04;;;;;;;;;;;;;;;29.52;47.83;98130.28;5092978;28;19931;-74
2023/07/10 01:31:31;;;;;;;;;;;;;;;29.41;47.90;98132.13;5092780;28;19978;-74
2023/07/10 01:33:59;;;;;;;;;;;;;;;29.37;47.84;98132.09;5083548;28;19995;-75
2023/07/10 01:36:27;;;;;;;;;;;;;;;29.29;48.11;98132.44;5092739;28;20042;-75
2023/07/10 01:38:59;;;;;;;;;;;;;;;29.25;47.97;98128.84;5092697;28;19960;-75
2023/07/10 01:41:29;;;;;;;;;;;;;;;28.70;48.87;98131.47;5083164;28;19932;-74
2023/07/10 01:43:55;;;;;;;;;;;;;;;28.86;48.67;98132.03;5092861;28;19931;-75
2023/07/10 01:46:23;;;;;;;;;;;;;;;29.03;48.75;98121.59;5092642;28;19992;-74
2023/07/10 01:48:51;;;;;;;;;;;;;;;29.12;48.40;98122.81;5092453;28;20346;-75
2023/07/10 01:51:18;;;;;;;;;;;;;;;29.20;48.15;98123.69;5087541;28;19946;-75
2023/07/10 01:53:45;;;;;;;;;;;;;;;29.27;48.28;98118.28;5082998;28;19956;-76
2023/07/10 01:56:13;;;;;;;;;;;;;;;29.29;48.32;98127.72;5082657;28;20044;-74
2023/07/10 01:58:40;;;;;;;;;;;;;;;29.30;48.31;98123.03;5087147;28;19978;-74
2023/07/10 02:01:06;;;;;;;;;;;;;;;29.28;48.30;98122.59;5088059;28;19952;-74
2023/07/10 02:03:32;;;;;;;;;;;;;;;29.28;48.54;98112.38;5091811;28;19955;-74
2023/07/10 02:05:59;;;;;;;;;;;;;;;29.24;48.82;98124.53;5091667;28;19943;-74
2023/07/10 02:08:25;;;;;;;;;;;;;;;29.19;48.92;98122.91;5091924;28;19963;-74
2023/07/10 02:10:52;;;;;;;;;;;;;;;29.17;48.76;98119.75;5091946;28;19925;-75
2023/07/10 02:13:20;;;;;;;;;;;;;;;29.20;48.76;98118.97;5091818;28;19947;-74
2023/07/10 02:15:46;;;;;;;;;;;;;;;29.14;49.07;98127.97;5091964;28;19924;-74
2023/07/10 02:18:13;;;;;;;;;;;;;;;29.15;48.93;98132.28;5082590;28;20294;-74
2023/07/10 02:20:41;;;;;;;;;;;;;;;29.14;49.20;98139.75;5091615;28;19984;-74
2023/07/10 02:23:08;;;;;;;;;;;;;;;29.17;48.99;98143.69;5082662;28;19925;-74
2023/07/10 02:25:35;;;;;;;;;;;;;;;29.14;49.23;98153.50;5107119;28;19991;-74
2023/07/10 02:28:01;;;;;;;;;;;;;;;29.12;49.34;98161.31;5091624;28;20293;-74
2023/07/10 02:30:29;;;;;;;;;;;;;;;29.10;49.31;98157.38;5091783;28;19985;-74
2023/07/10 02:32:55;;;;;;;;;;;;;;;29.07;49.30;98158.13;5090383;28;20502;-74
2023/07/10 02:35:21;;;;;;;;;;;;;;;29.08;49.82;98162.47;5091933;28;19928;-74
2023/07/10 02:37:48;;;;;;;;;;;;;;;29.08;49.42;98163.28;5094510;28;19935;-74
2023/07/10 02:40:14;;;;;;;;;;;;;;;28.99;49.83;98168.28;5094962;28;19952;-74
2023/07/10 02:42:40;;;;;;;;;;;;;;;28.96;49.97;98180.03;5101959;28;19960;-74
2023/07/10 02:45:07;;;;;;;;;;;;;;;28.97;49.70;98176.09;5091675;28;19948;-75
2023/07/10 02:47:35;;;;;;;;;;;;;;;28.88;50.02;98178.38;5091383;28;19924;-75
2023/07/10 02:50:01;;;;;;;;;;;;;;;28.90;50.00;98176.06;5091143;28;19991;-75
2023/07/10 02:52:27;;;;;;;;;;;;;;;28.89;49.86;98178.00;5090115;28;19932;-75
2023/07/10 02:54:54;;;;;;;;;;;;;;;28.86;50.24;98184.25;5091212;28;19924;-75
2023/07/10 02:57:20;;;;;;;;;;;;;;;28.86;50.25;98181.50;5091254;28;19952;-75
2023/07/10 02:59:46;;;;;;;;;;;;;;;28.80;50.32;98183.03;5090999;28;19959;-75
2023/07/10 03:02:13;;;;;;;;;;;;;;;28.79;50.43;98184.19;5081650;28;19959;-75
2023/07/10 03:04:40;;;;;;;;;;;;;;;28.80;50.10;98177.53;5091408;28;19925;-75
2023/07/10 03:07:07;;;;;;;;;;;;;;;28.77;50.17;98175.53;5091187;28;19924;-75
2023/07/10 03:09:34;;;;;;;;;;;;;;;28.85;50.33;98179.13;5090939;28;19984;-75
2023/07/10 03:12:00;;;;;;;;;;;;;;;28.78;50.25;98177.09;5091026;28;19931;-75
2023/07/10 03:14:26;;;;;;;;;;;;;;;28.61;50.75;98171.38;5081308;28;20019;-75
2023/07/10 03:16:53;;;;;;;;;;;;;;;28.36;50.98;98171.06;5090564;28;19987;-75
2023/07/10 03:19:19;;;;;;;;;;;;;;;28.44;50.92;98172.75;5080852;28;19959;-75
2023/07/10 03:21:47;;;;;;;;;;;;;;;28.47;51.04;98169.25;5090705;28;19995;-75
2023/07/10 03:24:13;;;;;;;;;;;;;;;28.32;51.15;98167.47;5090695;28;20328;-75
2023/07/10 03:26:41;;;;;;;;;;;;;;;28.23;51.08;98155.97;5090549;28;19924;-75
2023/07/10 03:29:08;;;;;;;;;;;;;;;28.05;51.90;98164.00;5090668;28;19934;-75
2023/07/10 03:31:35;;;;;;;;;;;;;;;28.22;51.36;98160.72;5090314;28;19925;-75
2023/07/10 03:34:01;;;;;;;;;;;;;;;28.28;51.54;98161.16;5090532;28;19924;-75
2023/07/10 03:36:28;;;;;;;;;;;;;;;28.23;51.56;98154.03;5080738;28;19925;-75
2023/07/10 03:38:55;;;;;;;;;;;;;;;28.28;51.47;98155.66;5083142;28;19951;-75
2023/07/10 03:41:22;;;;;;;;;;;;;;;28.37;51.16;98147.94;5088410;28;19992;-75
2023/07/10 03:43:49;;;;;;;;;;;;;;;28.35;51.61;98148.28;5090458;28;19988;-75
2023/07/10 03:46:15;;;;;;;;;;;;;;;28.28;51.49;98161.16;5090404;28;19924;-75
2023/07/10 03:48:42;;;;;;;;;;;;;;;27.85;52.41;98143.28;5090236;28;19925;-75
2023/07/10 03:51:08;;;;;;;;;;;;;;;28.07;52.00;98153.41;5088980;28;19956;-75
2023/07/10 03:53:35;;;;;;;;;;;;;;;28.19;52.05;98152.41;5090486;28;19955;-75
2023/07/10 03:56:03;;;;;;;;;;;;;;;28.12;52.13;98155.06;5090349;28;19956;-75
2023/07/10 03:58:30;;;;;;;;;;;;;;;28.07;52.33;98150.66;5090271;28;19947;-74
2023/07/10 04:00:57;;;;;;;;;;;;;;;27.44;54.10;98145.03;5090325;28;19988;-74
2023/07/10 04:03:25;;;;;;;;;;;;;;;26.97;54.85;98153.59;5090435;28;19924;-74
2023/07/10 04:05:52;;;;;;;;;;;;;;;27.27;54.73;98150.97;5090374;28;19951;-74
2023/07/10 04:08:18;;;;;;;;;;;;;;;27.25;54.99;98154.09;5090285;28;19986;-74
2023/07/10 04:10:49;;;;;;;;;;;;;;;27.29;54.91;98157.69;5090720;28;19984;-74
2023/07/10 04:13:17;;;;;;;;;;;;;;;26.31;57.43;98148.34;5090577;28;19950;-74
2023/07/10 04:15:43;;;;;;;;;;;;;;;26.87;56.71;98162.41;5080951;28;19971;-74
2023/07/10 04:18:09;;;;;;;;;;;;;;;26.93;56.86;98162.91;5090111;28;19967;-74
2023/07/10 04:20:36;;;;;;;;;;;;;;;27.01;56.89;98178.34;5080554;28;20003;-74
2023/07/10 04:23:02;;;;;;;;;;;;;;;26.52;58.77;98172.66;5090239;28;19963;-74
2023/07/10 04:25:28;;;;;;;;;;;;;;;26.79;58.02;98175.16;5089752;28;19932;-75
2023/07/10 04:27:55;;;;;;;;;;;;;;;26.26;60.52;98181.50;5090006;28;19948;-75
2023/07/10 04:30:22;;;;;;;;;;;;;;;26.05;61.70;98170.88;5093371;28;19924;-75
2023/07/10 04:32:49;;;;;;;;;;;;;;;25.53;65.12;98163.00;5093877;28;20282;-74
2023/07/10 04:35:15;;;;;;;;;;;;;;;25.10;69.67;98155.66;5084182;28;20059;-74
2023/07/10 04:37:41;;;;;;;;;;;;;;;25.44;69.79;98165.09;5084171;28;19959;-74
2023/07/10 04:40:08;;;;;;;;;;;;;;;26.04;66.85;98176.69;5093689;28;19988;-74
2023/07/10 04:42:35;;;;;;;;;;;;;;;26.11;66.53;98174.91;5093733;28;19952;-74
2023/07/10 04:45:01;;;;;;;;;;;;;;;26.33;65.25;98173.47;5085964;28;19925;-74
2023/07/10 04:47:29;;;;;;;;;;;;;;;25.95;66.94;98168.69;5092685;28;20381;-74
2023/07/10 04:49:55;;;;;;;;;;;;;;;25.77;68.44;98184.72;5096552;28;19928;-74
2023/07/10 04:52:23;;;;;;;;;;;;;;;25.66;69.10;98180.91;5096137;28;19924;-73
2023/07/10 04:54:50;;;;;;;;;;;;;;;25.64;70.17;98175.00;5094903;28;19940;-73
2023/07/10 04:57:17;;;;;;;;;;;;;;;25.87;68.80;98179.84;5093521;28;19925;-74
2023/07/10 04:59:43;;;;;;;;;;;;;;;25.98;68.64;98178.91;5093239;28;19925;-74
2023/07/10 05:02:10;;;;;;;;;;;;;;;25.66;70.74;98172.72;5083481;28;19980;-74
2023/07/10 05:04:38;;;;;;;;;;;;;;;25.68;70.89;98184.09;5093214;28;19946;-74
2023/07/10 05:07:04;;;;;;;;;;;;;;;25.56;71.89;98186.16;5092963;28;19943;-74
2023/07/10 05:09:31;;;;;;;;;;;;;;;25.75;70.96;98186.19;5093246;28;19980;-73
2023/07/10 05:11:57;;;;;;;;;;;;;;;25.82;70.28;98186.38;5093213;28;20028;-73
2023/07/10 05:14:24;;;;;;;;;;;;;;;25.99;69.89;98179.72;5083158;28;19924;-74
2023/07/10 05:16:50;;;;;;;;;;;;;;;25.37;72.75;98175.91;5093315;28;19952;-74
2023/07/10 05:19:17;;;;;;;;;;;;;;;25.26;75.91;98174.81;5083389;28;19992;-74
2023/07/10 05:21:44;;;;;;;;;;;;;;;24.91;77.80;98166.53;5091540;28;19972;-74
2023/07/10 05:24:11;;;;;;;;;;;;;;;25.13;76.88;98165.09;5092763;28;19928;-74
2023/07/10 05:26:37;;;;;;;;;;;;;;;24.79;76.79;98163.03;5084637;28;19968;-74
2023/07/10 05:29:03;;;;;;;;;;;;;;;24.11;79.87;98174.75;5092684;28;20000;-74
2023/07/10 05:31:30;;;;;;;;;;;;;;;23.66;83.77;98179.56;5092632;28;19968;-74
2023/07/10 05:33:56;;;;;;;;;;;;;;;23.48;86.89;98176.28;5092961;28;19995;-74
2023/07/10 05:36:22;;;;;;;;;;;;;;;23.51;88.08;98178.31;5092860;28;19967;-74
2023/07/10 05:38:51;;;;;;;;;;;;;;;23.73;87.62;98181.72;5092600;28;19948;-75
2023/07/10 05:41:18;;;;;;;;;;;;;;;24.27;84.71;98184.94;5091616;28;19924;-74
2023/07/10 05:43:44;;;;;;;;;;;;;;;24.87;80.82;98200.34;5092575;28;19929;-74
2023/07/10 05:46:11;;;;;;;;;;;;;;;25.56;75.81;98194.34;5092648;28;20012;-75
2023/07/10 05:48:37;;;;;;;;;;;;;;;26.03;73.08;98199.72;5084089;28;19931;-75
2023/07/10 05:51:04;;;;;;;;;;;;;;;26.01;72.61;98210.25;5092346;28;19925;-75
2023/07/10 05:53:30;;;;;;;;;;;;;;;26.08;72.01;98199.47;5092405;28;19925;-75
2023/07/10 05:55:58;;;;;;;;;;;;;;;25.71;73.99;98197.06;5082525;28;19951;-75
2023/07/10 05:58:26;;;;;;;;;;;;;;;25.50;77.37;98184.84;5092047;28;19928;-74
2023/07/10 06:00:54;;;;;;;;;;;;;;;25.30;78.13;98172.97;5092181;28;19936;-74
2023/07/10 06:03:21;;;;;;;;;;;;;;;25.54;77.26;98188.44;5091999;28;19936;-74
2023/07/10 06:05:53;;;;;;;;;;;;;;;26.16;73.01;98193.03;5082605;28;19925;-75
2023/07/10 06:08:19;;;;;;;;;;;;;;;25.93;71.76;98197.56;5091848;28;19996;-75
2023/07/10 06:10:46;;;;;;;;;;;;;;;25.72;73.22;98192.38;5085877;28;19947;-75
2023/07/10 06:13:14;;;;;;;;;;;;;;;26.02;71.72;98195.44;5088344;28;19925;-75
2023/07/10 06:15:41;;;;;;;;;;;;;;;26.59;68.96;98202.91;5091851;28;20000;-75
2023/07/10 06:18:07;;;;;;;;;;;;;;;26.77;67.95;98204.84;5081873;28;19928;-75
2023/07/10 06:20:34;;;;;;;;;;;;;;;26.40;68.85;98214.66;5091501;28;19928;-75
2023/07/10 06:23:00;;;;;;;;;;;;;;;26.31;69.29;98225.03;5083763;28;19925;-75
2023/07/10 06:25:27;;;;;;;;;;;;;;;25.86;70.58;98219.28;5090071;28;19983;-74
2023/07/10 06:27:53;;;;;;;;;;;;;;;25.33;74.41;98202.34;5081959;28;19960;-75
2023/07/10 06:30:21;;;;;;;;;;;;;;;25.42;76.59;98205.69;5082069;28;19925;-75
2023/07/10 06:32:47;;;;;;;;;;;;;;;25.68;75.84;98206.00;5085090;28;19925;-75
2023/07/10 06:35:13;;;;;;;;;;;;;;;25.76;75.87;98215.94;5088199;28;20011;-75
2023/07/10 06:37:40;;;;;;;;;;;;;;;25.96;75.34;98211.34;5091139;28;19956;-74
2023/07/10 06:40:08;;;;;;;;;;;;;;;26.12;74.28;98211.31;5081383;28;19924;-74
2023/07/10 06:42:34;;;;;;;;;;;;;;;25.75;75.78;98214.34;5091044;28;19925;-75
2023/07/10 06:45:00;;;;;;;;;;;;;;;25.65;76.95;98209.44;5090978;28;19971;-74
2023/07/10 06:47:31;;;;;;;;;;;;;;;25.74;76.35;98221.00;5091413;28;19924;-73
2023/07/10 06:49:57;;;;;;;;;;;;;;;25.95;74.72;98208.94;5092883;28;19936;-73
2023/07/10 06:52:23;;;;;;;;;;;;;;;26.01;74.41;98216.53;5094579;28;20018;-74
2023/07/10 06:54:50;;;;;;;;;;;;;;;25.73;76.36;98205.72;5093542;28;19952;-74
2023/07/10 06:57:16;;;;;;;;;;;;;;;25.65;77.97;98203.97;5091097;28;19931;-74
2023/07/10 06:59:42;;;;;;;;;;;;;;;25.62;79.01;98201.94;5090553;28;19959;-74
2023/07/10 07:02:09;;;;;;;;;;;;;;;25.88;77.17;98211.50;5090806;28;20011;-73
2023/07/10 07:04:37;;;;;;;;;;;;;;;25.91;76.72;98205.31;5080843;28;19942;-74
2023/07/10 07:07:03;;;;;;;;;;;;;;;25.42;80.06;98208.44;5090610;28;19925;-74
2023/07/10 07:09:29;;;;;;;;;;;;;;;25.52;80.30;98205.19;5090587;28;20015;-74
2023/07/10 07:11:56;;;;;;;;;;;;;;;25.28;83.25;98210.03;5080835;28;19952;-74
2023/07/10 07:14:22;;;;;;;;;;;;;;;25.42;81.05;98211.16;5090565;28;20015;-74
2023/07/10 07:16:48;;;;;;;;;;;;;;;25.95;76.64;98217.16;5090605;28;20393;-74
2023/07/10 07:19:15;;;;;;;;;;;;;;;26.24;74.96;98213.94;5090489;28;20026;-74
2023/07/10 07:21:42;;;;;;;;;;;;;;;26.12;76.17;98211.31;5090256;28;19996;-74
2023/07/10 07:24:09;;;;;;;;;;;;;;;26.38;74.05;98218.91;5090509;28;19997;-74
2023/07/10 07:26:35;;;;;;;;;;;;;;;26.83;70.59;98230.06;5090368;28;19939;-74
2023/07/10 07:29:02;;;;;;;;;;;;;;;27.13;68.78;98241.22;5090602;28;19940;-74
2023/07/10 07:31:28;;;;;;;;;;;;;;;26.53;72.64;98226.28;5090397;28;19963;-74
2023/07/10 07:33:55;;;;;;;;;;;;;;;26.11;77.53;98237.06;5090842;28;20000;-74
2023/07/10 07:36:22;;;;;;;;;;;;;;;26.62;73.98;98244.09;5090325;28;19924;-74
2023/07/10 07:38:50;;;;;;;;;;;;;;;26.70;73.17;98247.78;5090517;28;19930;-74
2023/07/10 07:41:16;;;;;;;;;;;;;;;26.12;78.91;98249.63;5090343;28;19924;-74
2023/07/10 07:43:42;;;;;;;;;;;;;;;25.85;81.92;98253.25;5090321;28;20390;-74
2023/07/10 07:46:09;;;;;;;;;;;;;;;26.28;80.04;98272.28;5090555;28;19931;-74
2023/07/10 07:48:35;;;;;;;;;;;;;;;26.97;74.47;98290.66;5090355;28;19954;-74
2023/07/10 07:51:02;;;;;;;;;;;;;;;27.27;71.91;98290.81;5089199;28;19924;-74
2023/07/10 07:53:29;;;;;;;;;;;;;;;26.99;73.96;98288.31;5090246;28;19951;-74
2023/07/10 07:55:57;;;;;;;;;;;;;;;27.23;71.63;98306.44;5090307;28;19925;-74
2023/07/10 07:58:23;;;;;;;;;;;;;;;27.41;69.77;98299.34;5090136;28;19971;-74
2023/07/10 08:00:50;;;;;;;;;;;;;;;27.46;70.53;98296.31;5090321;28;19979;-74
2023/07/10 08:03:17;;;;;;;;;;;;;;;27.52;69.61;98275.66;5090485;28;20023;-74
2023/07/10 08:05:43;;;;;;;;;;;;;;;27.62;68.74;98255.84;5094275;28;19959;-74
2023/07/10 08:08:10;;;;;;;;;;;;;;;27.68;68.21;98256.31;5094555;28;20003;-74
2023/07/10 08:10:37;;;;;;;;;;;;;;;27.77;67.08;98248.63;5081401;28;19925;-74
2023/07/10 08:13:05;;;;;;;;;;;;;;;27.81;66.55;98253.03;5089620;28;19924;-74
2023/07/10 08:15:31;;;;;;;;;;;;;;;27.67;67.44;98235.50;5094041;28;19994;-74
2023/07/10 08:17:58;;;;;;;;;;;;;;;27.58;66.72;98233.03;5094371;28;19952;-74
2023/07/10 08:20:24;;;;;;;;;;;;;;;27.57;66.89;98215.00;5094098;28;19925;-74
2023/07/10 08:22:51;;;;;;;;;;;;;;;27.57;67.86;98209.53;5093791;28;19996;-74
2023/07/10 08:25:17;;;;;;;;;;;;;;;27.52;67.55;98218.03;5093702;28;19924;-74
2023/07/10 08:27:45;;;;;;;;;;;;;;;27.63;67.52;98220.97;5093770;28;19967;-74
2023/07/10 08:30:13;;;;;;;;;;;;;;;27.70;67.92;98226.56;5093736;28;19950;-74
2023/07/10 08:32:40;;;;;;;;;;;;;;;27.77;67.60;98234.91;5085497;28;20350;-74
2023/07/10 08:35:07;;;;;;;;;;;;;;;27.78;67.85;98226.31;5083915;28;19925;-74
2023/07/10 08:37:36;;;;;;;;;;;;;;;27.75;67.57;98227.06;5093756;28;19924;-74
2023/07/10 08:40:03;;;;;;;;;;;;;;;27.88;66.64;98268.81;5095641;28;19924;-74
2023/07/10 08:42:31;;;;;;;;;;;;;;;27.85;67.24;98286.78;5095522;28;19924;-73
2023/07/10 08:44:57;;;;;;;;;;;;;;;27.89;66.94;98279.41;5094539;28;19996;-74
2023/07/10 08:47:27;;;;;;;;;;;;;;;27.78;67.47;98288.66;5083800;28;20023;-74
2023/07/10 08:49:55;;;;;;;;;;;;;;;27.83;68.01;98286.38;5093120;28;19925;-74
2023/07/10 08:52:30;;;;;;;;;;;;;;;27.85;68.22;98303.25;5093299;28;19976;-73
2023/07/10 08:54:56;;;;;;;;;;;;;;;27.91;70.20;98317.50;5093208;28;20020;-74
2023/07/10 08:57:27;;;;;;;;;;;;;;;27.62;87.15;98299.75;5093185;28;19966;-73
2023/07/10 08:59:57;;;;;;;;;;;;;;;27.04;92.74;98295.47;5093063;28;19924;-74
2023/07/10 09:02:32;;;;;;;;;;;;;;;27.26;87.34;98302.97;5093280;28;19924;-74
2023/07/10 09:05:00;;;;;;;;;;;;;;;27.51;86.95;98303.47;5093152;28;19992;-74
2023/07/10 09:07:28;;;;;;;;;;;;;;;27.45;88.45;98289.22;5093241;28;19991;-73
2023/07/10 09:09:56;;;;;;;;;;;;;;;27.38;88.81;98278.13;5093122;28;19924;-74
2023/07/10 09:12:24;;;;;;;;;;;;;;;27.42;90.59;98284.44;5093192;28;19970;-74
2023/07/10 09:14:53;;;;;;;;;;;;;;;27.46;87.71;98290.81;5092346;28;20018;-74
2023/07/10 09:17:25;;;;;;;;;;;;;;;27.31;94.02;98288.94;5092216;28;19935;-73
2023/07/10 09:19:57;;;;;;;;;;;;;;;27.52;97.42;98286.63;5092955;28;19970;-73
2023/07/10 09:22:23;;;;;;;;;;;;;;;27.61;100.00;98267.97;5092619;28;19963;-74
2023/07/10 09:24:50;;;;;;;;;;;;;;;27.76;96.68;98299.22;5092770;28;20000;-74
2023/07/10 09:27:16;;;;;;;;;;;;;;;27.82;100.00;98293.03;5092320;28;20092;-73
2023/07/10 09:29:44;;;;;;;;;;;;;;;27.92;100.00;98285.31;5092415;28;19924;-73
2023/07/10 09:32:12;;;;;;;;;;;;;;;27.45;100.00;98275.50;5092489;28;19967;-73
2023/07/10 09:34:41;;;;;;;;;;;;;;;27.53;100.00;98282.72;5084252;28;19924;-73
2023/07/10 09:37:11;;;;;;;;;;;;;;;27.39;100.00;98268.72;5092357;28;19947;-73
2023/07/10 09:39:38;;;;;;;;;;;;;;;27.42;100.00;98289.94;5084004;28;19943;-73
2023/07/10 09:42:05;;;;;;;;;;;;;;;27.72;100.00;98288.16;5092411;28;19924;-73
2023/07/10 09:44:34;;;;;;;;;;;;;;;27.55;100.00;98279.59;5092102;28;20039;-73
2023/07/10 09:47:02;;;;;;;;;;;;;;;27.80;100.00;98298.09;5092433;28;19924;-74
2023/07/10 09:49:33;;;;;;;;;;;;;;;28.03;100.00;98289.06;5091912;28;19979;-73
2023/07/10 09:52:01;;;;;;;;;;;;;;;28.16;100.00;98283.00;5091993;28;19983;-74
2023/07/10 09:54:35;;;;;;;;;;;;;;;28.16;100.00;98287.72;5091927;28;19955;-74
2023/07/10 09:57:03;;;;;;;;;;;;;;;28.18;100.00;98283.44;5091932;28;19938;-73
2023/07/10 09:59:32;;;;;;;;;;;;;;;28.28;100.00;98291.06;5091947;28;19991;-73
2023/07/10 10:02:03;;;;;;;;;;;;;;;28.29;100.00;98300.88;5091839;28;19971;-73
2023/07/10 10:04:31;;;;;;;;;;;;;;;28.24;100.00;98286.66;5091723;28;19989;-73
2023/07/10 10:07:01;;;;;;;;;;;;;;;28.21;100.00;98292.91;5084346;28;19924;-73
2023/07/10 10:09:29;;;;;;;;;;;;;;;28.38;100.00;98287.66;5090390;28;19936;-74
2023/07/10 10:12:01;;;;;;;;;;;;;;;28.39;100.00;98293.94;5091596;28;19987;-73
2023/07/10 10:14:34;;;;;;;;;;;;;;;28.25;100.00;98288.25;5091916;28;19924;-74
2023/07/10 10:17:06;;;;;;;;;;;;;;;28.37;100.00;98285.28;5091685;28;19956;-74
2023/07/10 10:19:34;;;;;;;;;;;;;;;28.39;100.00;98280.22;5091384;28;19971;-74
2023/07/10 10:22:01;;;;;;;;;;;;;;;28.46;100.00;98288.56;5091485;28;19999;-73
2023/07/10 10:24:30;;;;;;;;;;;;;;;28.57;100.00;98286.75;5091711;28;20003;-73
2023/07/10 10:27:12;;;;;;;;;;;;;;;28.59;100.00;98287.19;5092759;28;20015;-74
2023/07/10 10:30:05;;;;;;;;;;;;;;;28.73;100.00;98279.13;5084759;28;19974;-73
2023/07/10 10:32:36;;;;;;;;;;;;;;;28.71;100.00;98278.72;5055274;28;19924;-72
2023/07/10 10:35:09;;;;;;;;;;;;;;;28.78;100.00;98278.03;5091539;28;19924;-73
2023/07/10 10:37:40;;;;;;;;;;;;;;;28.73;100.00;98281.88;5091392;28;19931;-73
2023/07/10 10:40:13;;;;;;;;;;;;;;;28.73;100.00;98281.88;5091284;28;20012;-73
2023/07/10 10:42:44;;;;;;;;;;;;;;;28.96;100.00;98281.00;5083493;28;19925;-73
2023/07/10 10:45:13;;;;;;;;;;;;;;;28.88;100.00;98272.66;5091147;28;19933;-73
2023/07/10 10:47:44;;;;;;;;;;;;;;;29.03;100.00;98268.09;5083216;28;19924;-73
2023/07/10 10:50:25;;;;;;;;;;;;;;;29.10;100.00;98272.88;5091251;28;19943;-74
2023/07/10 10:52:59;;;;;;;;;;;;;;;29.10;100.00;98259.13;5084783;28;20023;-74
2023/07/10 10:55:32;;;;;;;;;;;;;;;29.17;99.78;98267.47;5081517;28;19979;-72
2023/07/10 10:58:06;;;;;;;;;;;;;;;29.18;98.82;98263.56;5091266;28;19975;-72
2023/07/10 11:00:38;;;;;;;;;;;;;;;29.32;97.16;98264.53;5090959;28;20038;-72
2023/07/10 11:03:17;;;;;;;;;;;;;;;29.35;96.56;98251.97;5091118;28;20011;-73
2023/07/10 11:05:46;;;;;;;;;;;;;;;29.43;95.59;98259.13;5083635;28;19987;-73
2023/07/10 11:08:16;;;;;;;;;;;;;;;29.46;95.72;98261.91;5091015;28;19967;-72
2023/07/10 11:10:43;;;;;;;;;;;;;;;29.50;94.14;98259.19;5082057;28;19991;-72
2023/07/10 11:13:18;;;;;;;;;;;;;;;29.59;95.21;98259.66;5090957;28;19931;-73
2023/07/10 11:15:45;;;;;;;;;;;;;;;29.61;94.10;98259.31;5082299;28;19924;-72
2023/07/10 11:18:14;;;;;;;;;;;;;;;29.69;96.12;98244.41;5090964;28;20262;-72
2023/07/10 11:20:41;;;;;;;;;;;;;;;29.42;97.62;98244.59;5082977;28;19931;-73
2023/07/10 11:23:27;;;;;;;;;;;;;;;29.49;95.98;98241.13;5090797;28;20023;-73
2023/07/10 11:25:59;;;;;;;;;;;;;;;29.55;96.48;98234.09;5084898;28;19968;-73
2023/07/10 11:28:29;;;;;;;;;;;;;;;29.47;95.53;98240.69;5090990;28;19991;-73
2023/07/10 11:31:10;;;;;;;;;;;;;;;29.54;97.40;98227.00;5090840;28;19983;-74
2023/07/10 11:33:37;;;;;;;;;;;;;;;29.46;96.77;98220.63;5090501;28;19936;-73
2023/07/10 11:36:15;;;;;;;;;;;;;;;29.49;98.59;98208.09;5090678;28;19963;-73
2023/07/10 11:38:57;;;;;;;;;;;;;;;29.51;98.90;98200.25;5082166;28;20184;-73
2023/07/10 11:41:26;;;;;;;;;;;;;;;29.58;98.05;98197.56;5081266;28;19991;-73
2023/07/10 11:43:57;;;;;;;;;;;;;;;29.60;96.58;98194.41;5090598;28;19932;-73
2023/07/10 11:46:25;;;;;;;;;;;;;;;29.64;96.03;98186.97;5090780;28;19936;-74
2023/07/10 11:49:16;;;;;;;;;;;;;;;29.75;94.98;98177.63;5090856;28;19971;-74
2023/07/10 11:51:42;;;;;;;;;;;;;;;29.73;93.84;98168.97;5075385;28;19996;-74
2023/07/10 11:54:28;;;;;;;;;;;;;;;29.73;92.53;98168.97;5090592;28;19928;-73
2023/07/10 11:57:02;;;;;;;;;;;;;;;29.83;91.62;98167.47;5084906;28;19936;-74
2023/07/10 11:59:29;;;;;;;;;;;;;;;29.84;91.91;98158.81;5081306;28;19992;-74
2023/07/10 12:01:56;;;;;;;;;;;;;;;29.85;90.61;98159.63;5083858;28;20027;-74
2023/07/10 12:04:25;;;;;;;;;;;;;;;29.84;88.00;98156.06;5088682;28;19952;-74
2023/07/10 12:06:52;;;;;;;;;;;;;;;29.98;84.44;98153.41;5091524;28;19967;-73
2023/07/10 12:09:18;;;;;;;;;;;;;;;30.17;82.37;98144.06;5092939;28;19925;-74
2023/07/10 12:11:46;;;;;;;;;;;;;;;30.04;84.08;98150.28;5092670;28;19963;-74
2023/07/10 12:14:14;;;;;;;;;;;;;;;30.10;83.67;98143.25;5081638;28;19925;-74
2023/07/10 12:16:44;;;;;;;;;;;;;;;30.15;82.30;98140.09;5081487;28;19960;-74
2023/07/10 12:19:13;;;;;;;;;;;;;;;30.14;81.75;98141.31;5090580;28;19956;-74
2023/07/10 12:21:40;;;;;;;;;;;;;;;30.02;81.92;98131.38;5087107;28;19974;-74
2023/07/10 12:24:12;;;;;;;;;;;;;;;30.05;80.50;98136.13;5090390;28;19931;-74
2023/07/10 12:26:39;;;;;;;;;;;;;;;30.11;79.88;98128.31;5082294;28;19925;-75
2023/07/10 12:29:10;;;;;;;;;;;;;;;30.15;79.12;98118.06;5090480;28;19967;-75
2023/07/10 12:31:39;;;;;;;;;;;;;;;30.29;77.90;98120.91;5090421;28;19925;-74
2023/07/10 12:34:06;;;;;;;;;;;;;;;30.31;78.54;98110.28;5089835;28;19924;-74
2023/07/10 12:36:34;;;;;;;;;;;;;;;30.47;76.48;98114.31;5090211;28;19964;-74
2023/07/10 12:39:02;;;;;;;;;;;;;;;30.20;77.34;98117.72;5090157;28;19962;-73
2023/07/10 12:41:32;;;;;;;;;;;;;;;30.10;77.70;98107.44;5080461;28;19924;-73
2023/07/10 12:44:01;;;;;;;;;;;;;;;30.18;76.92;98111.78;5090205;28;19925;-73
2023/07/10 12:46:29;;;;;;;;;;;;;;;30.28;76.38;98097.28;5089884;28;19924;-73
2023/07/10 12:48:57;;;;;;;;;;;;;;;30.33;76.69;98113.44;5090014;28;19935;-74
2023/07/10 12:51:28;;;;;;;;;;;;;;;30.36;77.10;98109.91;5092639;28;19924;-73